sensor_id;sensor_type;location;lat;lon;timestamp;P1;durP1;ratioP1;P2;durP2;ratioP2
71963;SDS011;59834;52.124;5.422;2023-07-08T00:00:53;2.05;;;1.17;;
71963;SDS011;59834;52.124;5.422;2023-07-08T00:03:20;5.40;;;1.35;;
71963;SDS011;59834;52.124;5.422;2023-07-08T00:05:47;4.50;;;1.13;;
71963;SDS011;59834;52.124;5.422;2023-07-08T00:08:16;1.73;;;1.00;;
71963;SDS011;59834;52.124;5.422;2023-07-08T00:10:46;8.13;;;2.45;;
71963;SDS011;59834;52.124;5.422;2023-07-08T00:13:13;5.10;;;1.35;;
71963;SDS011;59834;52.124;5.422;2023-07-08T00:15:39;2.10;;;0.88;;
71963;SDS011;59834;52.124;5.422;2023-07-08T00:18:14;2.00;;;1.33;;
71963;SDS011;59834;52.124;5.422;2023-07-08T00:20:47;1.50;;;0.98;;
71963;SDS011;59834;52.124;5.422;2023-07-08T00:23:15;2.40;;;1.20;;
71963;SDS011;59834;52.124;5.422;2023-07-08T00:25:42;7.28;;;0.82;;
71963;SDS011;59834;52.124;5.422;2023-07-08T00:28:10;1.85;;;1.02;;
71963;SDS011;59834;52.124;5.422;2023-07-08T00:30:38;2.10;;;1.20;;
71963;SDS011;59834;52.124;5.422;2023-07-08T00:33:05;4.03;;;1.00;;
71963;SDS011;59834;52.124;5.422;2023-07-08T00:35:34;3.33;;;1.33;;
71963;SDS011;59834;52.124;5.422;2023-07-08T00:38:02;2.88;;;1.10;;
71963;SDS011;59834;52.124;5.422;2023-07-08T00:40:51;3.92;;;1.25;;
71963;SDS011;59834;52.124;5.422;2023-07-08T00:43:47;4.00;;;1.10;;
71963;SDS011;59834;52.124;5.422;2023-07-08T00:46:50;1.67;;;0.90;;
71963;SDS011;59834;52.124;5.422;2023-07-08T00:55:15;2.85;;;1.52;;
71963;SDS011;59834;52.124;5.422;2023-07-08T00:57:42;3.70;;;1.00;;
71963;SDS011;59834;52.124;5.422;2023-07-08T01:00:15;3.70;;;1.00;;
71963;SDS011;59834;52.124;5.422;2023-07-08T01:02:48;4.10;;;1.05;;
71963;SDS011;59834;52.124;5.422;2023-07-08T01:05:20;3.42;;;1.20;;
71963;SDS011;59834;52.124;5.422;2023-07-08T01:07:51;2.70;;;0.90;;
71963;SDS011;59834;52.124;5.422;2023-07-08T01:10:22;2.63;;;1.37;;
71963;SDS011;59834;52.124;5.422;2023-07-08T01:12:57;3.65;;;1.15;;
71963;SDS011;59834;52.124;5.422;2023-07-08T01:15:33;5.10;;;1.35;;
71963;SDS011;59834;52.124;5.422;2023-07-08T01:18:05;4.03;;;1.40;;
71963;SDS011;59834;52.124;5.422;2023-07-08T01:20:33;4.28;;;1.13;;
71963;SDS011;59834;52.124;5.422;2023-07-08T01:23:00;3.63;;;1.40;;
71963;SDS011;59834;52.124;5.422;2023-07-08T01:25:26;2.00;;;1.02;;
71963;SDS011;59834;52.124;5.422;2023-07-08T01:27:54;3.90;;;1.33;;
71963;SDS011;59834;52.124;5.422;2023-07-08T01:30:23;3.03;;;1.33;;
71963;SDS011;59834;52.124;5.422;2023-07-08T01:32:51;4.55;;;1.45;;
71963;SDS011;59834;52.124;5.422;2023-07-08T01:35:22;3.77;;;1.20;;
71963;SDS011;59834;52.124;5.422;2023-07-08T01:37:50;2.80;;;1.17;;
71963;SDS011;59834;52.124;5.422;2023-07-08T01:40:29;2.63;;;1.08;;
71963;SDS011;59834;52.124;5.422;2023-07-08T01:42:56;3.17;;;1.15;;
71963;SDS011;59834;52.124;5.422;2023-07-08T01:45:26;5.07;;;1.40;;
71963;SDS011;59834;52.124;5.422;2023-07-08T01:47:57;4.90;;;1.00;;
71963;SDS011;59834;52.124;5.422;2023-07-08T01:50:30;2.88;;;1.80;;
71963;SDS011;59834;52.124;5.422;2023-07-08T01:52:59;2.10;;;1.10;;
71963;SDS011;59834;52.124;5.422;2023-07-08T01:55:28;3.08;;;1.25;;
71963;SDS011;59834;52.124;5.422;2023-07-08T01:57:56;2.58;;;1.35;;
71963;SDS011;59834;52.124;5.422;2023-07-08T02:00:24;2.90;;;1.40;;
71963;SDS011;59834;52.124;5.422;2023-07-08T02:02:50;3.28;;;1.70;;
71963;SDS011;59834;52.124;5.422;2023-07-08T02:05:17;8.50;;;1.75;;
71963;SDS011;59834;52.124;5.422;2023-07-08T02:07:44;4.72;;;1.23;;
71963;SDS011;59834;52.124;5.422;2023-07-08T02:10:11;3.38;;;1.40;;
71963;SDS011;59834;52.124;5.422;2023-07-08T02:12:38;4.93;;;1.70;;
71963;SDS011;59834;52.124;5.422;2023-07-08T02:15:05;2.63;;;1.48;;
71963;SDS011;59834;52.124;5.422;2023-07-08T02:17:33;5.47;;;1.45;;
71963;SDS011;59834;52.124;5.422;2023-07-08T02:19:59;9.68;;;1.40;;
71963;SDS011;59834;52.124;5.422;2023-07-08T02:22:26;3.90;;;1.05;;
71963;SDS011;59834;52.124;5.422;2023-07-08T02:24:52;3.23;;;1.47;;
71963;SDS011;59834;52.124;5.422;2023-07-08T02:27:19;2.40;;;1.70;;
71963;SDS011;59834;52.124;5.422;2023-07-08T02:29:46;3.83;;;1.63;;
71963;SDS011;59834;52.124;5.422;2023-07-08T02:32:12;4.85;;;1.40;;
71963;SDS011;59834;52.124;5.422;2023-07-08T02:34:39;3.08;;;1.48;;
71963;SDS011;59834;52.124;5.422;2023-07-08T02:37:05;2.60;;;1.70;;
71963;SDS011;59834;52.124;5.422;2023-07-08T02:39:32;3.47;;;1.45;;
71963;SDS011;59834;52.124;5.422;2023-07-08T02:41:59;1.90;;;1.30;;
71963;SDS011;59834;52.124;5.422;2023-07-08T02:44:27;2.35;;;1.30;;
71963;SDS011;59834;52.124;5.422;2023-07-08T02:46:53;5.38;;;1.50;;
71963;SDS011;59834;52.124;5.422;2023-07-08T02:49:21;3.70;;;1.50;;
71963;SDS011;59834;52.124;5.422;2023-07-08T02:51:47;4.72;;;1.50;;
71963;SDS011;59834;52.124;5.422;2023-07-08T02:54:14;5.28;;;1.70;;
71963;SDS011;59834;52.124;5.422;2023-07-08T02:56:41;3.45;;;1.40;;
71963;SDS011;59834;52.124;5.422;2023-07-08T02:59:07;2.65;;;1.27;;
71963;SDS011;59834;52.124;5.422;2023-07-08T03:01:34;4.37;;;1.97;;
71963;SDS011;59834;52.124;5.422;2023-07-08T03:04:08;2.75;;;1.50;;
71963;SDS011;59834;52.124;5.422;2023-07-08T03:06:42;3.80;;;1.58;;
71963;SDS011;59834;52.124;5.422;2023-07-08T03:09:10;2.35;;;1.52;;
71963;SDS011;59834;52.124;5.422;2023-07-08T03:11:38;3.65;;;1.80;;
71963;SDS011;59834;52.124;5.422;2023-07-08T03:14:05;4.30;;;1.93;;
71963;SDS011;59834;52.124;5.422;2023-07-08T03:16:33;3.72;;;1.60;;
71963;SDS011;59834;52.124;5.422;2023-07-08T03:19:00;7.25;;;1.90;;
71963;SDS011;59834;52.124;5.422;2023-07-08T03:21:26;5.05;;;2.05;;
71963;SDS011;59834;52.124;5.422;2023-07-08T03:23:53;3.45;;;1.33;;
71963;SDS011;59834;52.124;5.422;2023-07-08T03:26:23;2.50;;;1.20;;
71963;SDS011;59834;52.124;5.422;2023-07-08T03:28:51;3.45;;;1.42;;
71963;SDS011;59834;52.124;5.422;2023-07-08T03:31:18;4.85;;;1.98;;
71963;SDS011;59834;52.124;5.422;2023-07-08T03:33:44;2.45;;;1.42;;
71963;SDS011;59834;52.124;5.422;2023-07-08T03:36:12;5.10;;;1.45;;
71963;SDS011;59834;52.124;5.422;2023-07-08T03:38:51;3.97;;;1.77;;
71963;SDS011;59834;52.124;5.422;2023-07-08T03:41:19;3.65;;;1.75;;
71963;SDS011;59834;52.124;5.422;2023-07-08T03:43:46;3.38;;;1.25;;
71963;SDS011;59834;52.124;5.422;2023-07-08T03:46:13;2.85;;;1.45;;
71963;SDS011;59834;52.124;5.422;2023-07-08T03:48:41;2.47;;;1.88;;
71963;SDS011;59834;52.124;5.422;2023-07-08T03:51:13;4.50;;;2.20;;
71963;SDS011;59834;52.124;5.422;2023-07-08T03:53:48;4.28;;;1.60;;
71963;SDS011;59834;52.124;5.422;2023-07-08T03:56:15;4.40;;;1.80;;
71963;SDS011;59834;52.124;5.422;2023-07-08T03:58:41;2.35;;;1.65;;
71963;SDS011;59834;52.124;5.422;2023-07-08T04:01:15;5.25;;;1.50;;
71963;SDS011;59834;52.124;5.422;2023-07-08T04:03:43;3.53;;;1.47;;
71963;SDS011;59834;52.124;5.422;2023-07-08T04:06:11;3.10;;;1.40;;
71963;SDS011;59834;52.124;5.422;2023-07-08T04:08:38;6.93;;;2.30;;
71963;SDS011;59834;52.124;5.422;2023-07-08T04:11:05;4.05;;;1.45;;
71963;SDS011;59834;52.124;5.422;2023-07-08T04:13:32;4.10;;;1.63;;
71963;SDS011;59834;52.124;5.422;2023-07-08T04:16:00;9.33;;;2.97;;
71963;SDS011;59834;52.124;5.422;2023-07-08T04:18:30;9.93;;;2.20;;
71963;SDS011;59834;52.124;5.422;2023-07-08T04:20:57;3.63;;;2.03;;
71963;SDS011;59834;52.124;5.422;2023-07-08T04:23:28;6.07;;;1.95;;
71963;SDS011;59834;52.124;5.422;2023-07-08T04:25:55;5.70;;;1.98;;
71963;SDS011;59834;52.124;5.422;2023-07-08T04:28:23;6.77;;;1.40;;
71963;SDS011;59834;52.124;5.422;2023-07-08T04:30:50;9.10;;;2.40;;
71963;SDS011;59834;52.124;5.422;2023-07-08T04:33:17;8.02;;;1.75;;
71963;SDS011;59834;52.124;5.422;2023-07-08T04:35:44;2.95;;;1.90;;
71963;SDS011;59834;52.124;5.422;2023-07-08T04:38:19;3.35;;;1.75;;
71963;SDS011;59834;52.124;5.422;2023-07-08T04:40:50;2.13;;;1.77;;
71963;SDS011;59834;52.124;5.422;2023-07-08T04:43:19;3.58;;;1.90;;
71963;SDS011;59834;52.124;5.422;2023-07-08T04:45:48;3.20;;;1.75;;
71963;SDS011;59834;52.124;5.422;2023-07-08T04:48:18;4.40;;;2.08;;
71963;SDS011;59834;52.124;5.422;2023-07-08T04:50:50;6.03;;;2.20;;
71963;SDS011;59834;52.124;5.422;2023-07-08T04:53:17;3.47;;;1.60;;
71963;SDS011;59834;52.124;5.422;2023-07-08T04:55:45;7.28;;;2.20;;
71963;SDS011;59834;52.124;5.422;2023-07-08T04:58:14;6.28;;;2.25;;
71963;SDS011;59834;52.124;5.422;2023-07-08T05:00:41;2.70;;;1.80;;
71963;SDS011;59834;52.124;5.422;2023-07-08T05:03:08;3.97;;;1.90;;
71963;SDS011;59834;52.124;5.422;2023-07-08T05:05:35;4.10;;;2.20;;
71963;SDS011;59834;52.124;5.422;2023-07-08T05:08:01;4.07;;;2.00;;
71963;SDS011;59834;52.124;5.422;2023-07-08T05:10:28;4.35;;;1.90;;
71963;SDS011;59834;52.124;5.422;2023-07-08T05:12:55;3.67;;;2.03;;
71963;SDS011;59834;52.124;5.422;2023-07-08T05:15:21;4.63;;;1.83;;
71963;SDS011;59834;52.124;5.422;2023-07-08T05:17:49;4.67;;;2.10;;
71963;SDS011;59834;52.124;5.422;2023-07-08T05:20:17;6.35;;;2.20;;
71963;SDS011;59834;52.124;5.422;2023-07-08T05:22:45;5.25;;;2.45;;
71963;SDS011;59834;52.124;5.422;2023-07-08T05:25:13;3.15;;;2.13;;
71963;SDS011;59834;52.124;5.422;2023-07-08T05:27:40;2.53;;;1.88;;
71963;SDS011;59834;52.124;5.422;2023-07-08T05:30:08;5.03;;;1.90;;
71963;SDS011;59834;52.124;5.422;2023-07-08T05:32:40;3.50;;;2.20;;
71963;SDS011;59834;52.124;5.422;2023-07-08T05:35:07;3.95;;;1.85;;
71963;SDS011;59834;52.124;5.422;2023-07-08T05:37:36;3.55;;;2.25;;
71963;SDS011;59834;52.124;5.422;2023-07-08T05:40:04;6.47;;;2.15;;
71963;SDS011;59834;52.124;5.422;2023-07-08T05:42:31;6.80;;;2.57;;
71963;SDS011;59834;52.124;5.422;2023-07-08T05:44:58;6.15;;;2.40;;
71963;SDS011;59834;52.124;5.422;2023-07-08T05:47:25;4.68;;;2.20;;
71963;SDS011;59834;52.124;5.422;2023-07-08T05:49:52;5.60;;;2.60;;
71963;SDS011;59834;52.124;5.422;2023-07-08T05:52:19;2.65;;;2.17;;
71963;SDS011;59834;52.124;5.422;2023-07-08T05:54:45;3.67;;;2.00;;
71963;SDS011;59834;52.124;5.422;2023-07-08T05:57:12;2.60;;;2.15;;
71963;SDS011;59834;52.124;5.422;2023-07-08T05:59:38;3.67;;;2.47;;
71963;SDS011;59834;52.124;5.422;2023-07-08T06:02:05;4.25;;;1.88;;
71963;SDS011;59834;52.124;5.422;2023-07-08T06:04:33;4.22;;;2.63;;
71963;SDS011;59834;52.124;5.422;2023-07-08T06:07:00;4.17;;;1.97;;
71963;SDS011;59834;52.124;5.422;2023-07-08T06:09:26;6.13;;;2.30;;
71963;SDS011;59834;52.124;5.422;2023-07-08T06:11:53;6.47;;;2.42;;
71963;SDS011;59834;52.124;5.422;2023-07-08T06:14:20;3.50;;;2.70;;
71963;SDS011;59834;52.124;5.422;2023-07-08T06:16:47;4.95;;;2.30;;
71963;SDS011;59834;52.124;5.422;2023-07-08T06:19:13;5.47;;;2.30;;
71963;SDS011;59834;52.124;5.422;2023-07-08T06:21:41;3.75;;;2.30;;
71963;SDS011;59834;52.124;5.422;2023-07-08T06:24:08;3.78;;;2.30;;
71963;SDS011;59834;52.124;5.422;2023-07-08T06:26:34;2.63;;;2.10;;
71963;SDS011;59834;52.124;5.422;2023-07-08T06:29:02;4.63;;;2.15;;
71963;SDS011;59834;52.124;5.422;2023-07-08T06:31:29;6.30;;;2.47;;
71963;SDS011;59834;52.124;5.422;2023-07-08T06:33:56;5.32;;;2.10;;
71963;SDS011;59834;52.124;5.422;2023-07-08T06:36:23;9.35;;;2.35;;
71963;SDS011;59834;52.124;5.422;2023-07-08T06:38:50;4.18;;;2.33;;
71963;SDS011;59834;52.124;5.422;2023-07-08T06:41:16;9.10;;;2.45;;
71963;SDS011;59834;52.124;5.422;2023-07-08T06:43:43;3.70;;;2.30;;
71963;SDS011;59834;52.124;5.422;2023-07-08T06:46:10;3.88;;;2.00;;
71963;SDS011;59834;52.124;5.422;2023-07-08T06:48:36;7.82;;;2.85;;
71963;SDS011;59834;52.124;5.422;2023-07-08T06:51:03;3.97;;;2.35;;
71963;SDS011;59834;52.124;5.422;2023-07-08T06:53:29;3.00;;;2.35;;
71963;SDS011;59834;52.124;5.422;2023-07-08T06:55:56;3.90;;;2.53;;
71963;SDS011;59834;52.124;5.422;2023-07-08T06:58:23;4.50;;;2.65;;
71963;SDS011;59834;52.124;5.422;2023-07-08T07:00:49;4.68;;;2.50;;
71963;SDS011;59834;52.124;5.422;2023-07-08T07:03:16;5.72;;;2.83;;
71963;SDS011;59834;52.124;5.422;2023-07-08T07:05:43;5.88;;;2.50;;
71963;SDS011;59834;52.124;5.422;2023-07-08T07:08:09;6.53;;;2.63;;
71963;SDS011;59834;52.124;5.422;2023-07-08T07:10:36;4.32;;;2.80;;
71963;SDS011;59834;52.124;5.422;2023-07-08T07:13:03;7.30;;;2.72;;
71963;SDS011;59834;52.124;5.422;2023-07-08T07:15:29;3.45;;;2.55;;
71963;SDS011;59834;52.124;5.422;2023-07-08T07:17:56;2.80;;;2.35;;
71963;SDS011;59834;52.124;5.422;2023-07-08T07:20:24;3.30;;;2.40;;
71963;SDS011;59834;52.124;5.422;2023-07-08T07:22:51;3.00;;;2.60;;
71963;SDS011;59834;52.124;5.422;2023-07-08T07:25:18;5.72;;;2.40;;
71963;SDS011;59834;52.124;5.422;2023-07-08T07:27:45;3.53;;;2.50;;
71963;SDS011;59834;52.124;5.422;2023-07-08T07:30:12;4.65;;;2.53;;
71963;SDS011;59834;52.124;5.422;2023-07-08T07:32:42;3.87;;;2.20;;
71963;SDS011;59834;52.124;5.422;2023-07-08T07:35:12;5.63;;;2.47;;
71963;SDS011;59834;52.124;5.422;2023-07-08T07:37:41;2.80;;;2.58;;
71963;SDS011;59834;52.124;5.422;2023-07-08T07:40:09;3.08;;;2.10;;
71963;SDS011;59834;52.124;5.422;2023-07-08T07:42:39;3.45;;;2.22;;
71963;SDS011;59834;52.124;5.422;2023-07-08T07:45:07;4.93;;;2.40;;
71963;SDS011;59834;52.124;5.422;2023-07-08T07:47:34;5.43;;;2.08;;
71963;SDS011;59834;52.124;5.422;2023-07-08T07:50:03;7.20;;;2.30;;
71963;SDS011;59834;52.124;5.422;2023-07-08T07:52:31;3.38;;;2.22;;
71963;SDS011;59834;52.124;5.422;2023-07-08T07:54:57;5.50;;;2.35;;
71963;SDS011;59834;52.124;5.422;2023-07-08T07:57:24;3.40;;;2.03;;
71963;SDS011;59834;52.124;5.422;2023-07-08T07:59:51;4.40;;;2.53;;
71963;SDS011;59834;52.124;5.422;2023-07-08T08:02:18;3.67;;;2.10;;
71963;SDS011;59834;52.124;5.422;2023-07-08T08:04:45;2.60;;;1.92;;
71963;SDS011;59834;52.124;5.422;2023-07-08T08:07:12;2.42;;;2.00;;
71963;SDS011;59834;52.124;5.422;2023-07-08T08:09:39;6.53;;;2.23;;
71963;SDS011;59834;52.124;5.422;2023-07-08T08:12:07;3.42;;;2.13;;
71963;SDS011;59834;52.124;5.422;2023-07-08T08:14:36;5.57;;;3.22;;
71963;SDS011;59834;52.124;5.422;2023-07-08T08:17:04;5.40;;;1.90;;
71963;SDS011;59834;52.124;5.422;2023-07-08T08:19:31;4.78;;;2.00;;
71963;SDS011;59834;52.124;5.422;2023-07-08T08:21:58;3.00;;;2.13;;
71963;SDS011;59834;52.124;5.422;2023-07-08T08:24:25;3.78;;;2.40;;
71963;SDS011;59834;52.124;5.422;2023-07-08T08:26:53;3.60;;;2.40;;
71963;SDS011;59834;52.124;5.422;2023-07-08T08:29:20;5.93;;;1.98;;
71963;SDS011;59834;52.124;5.422;2023-07-08T08:31:46;3.28;;;2.55;;
71963;SDS011;59834;52.124;5.422;2023-07-08T08:34:13;5.50;;;2.20;;
71963;SDS011;59834;52.124;5.422;2023-07-08T08:36:39;3.72;;;2.20;;
71963;SDS011;59834;52.124;5.422;2023-07-08T08:39:06;5.40;;;2.25;;
71963;SDS011;59834;52.124;5.422;2023-07-08T08:41:34;3.63;;;2.10;;
71963;SDS011;59834;52.124;5.422;2023-07-08T08:44:03;6.35;;;2.60;;
71963;SDS011;59834;52.124;5.422;2023-07-08T08:46:41;9.13;;;3.57;;
71963;SDS011;59834;52.124;5.422;2023-07-08T08:51:50;5.40;;;2.63;;
71963;SDS011;59834;52.124;5.422;2023-07-08T08:54:17;5.93;;;2.42;;
71963;SDS011;59834;52.124;5.422;2023-07-08T09:02:00;10.65;;;2.80;;
71963;SDS011;59834;52.124;5.422;2023-07-08T09:04:32;3.75;;;2.75;;
71963;SDS011;59834;52.124;5.422;2023-07-08T09:07:06;4.00;;;2.55;;
71963;SDS011;59834;52.124;5.422;2023-07-08T09:09:41;4.85;;;2.95;;
71963;SDS011;59834;52.124;5.422;2023-07-08T09:12:31;5.50;;;2.70;;
71963;SDS011;59834;52.124;5.422;2023-07-08T09:15:13;3.75;;;2.72;;
71963;SDS011;59834;52.124;5.422;2023-07-08T09:17:41;5.55;;;2.80;;
71963;SDS011;59834;52.124;5.422;2023-07-08T09:23:03;3.45;;;2.67;;
71963;SDS011;59834;52.124;5.422;2023-07-08T09:26:07;4.53;;;2.90;;
71963;SDS011;59834;52.124;5.422;2023-07-08T09:28:44;6.53;;;2.80;;
71963;SDS011;59834;52.124;5.422;2023-07-08T09:31:22;6.93;;;3.88;;
71963;SDS011;59834;52.124;5.422;2023-07-08T09:33:54;6.30;;;3.17;;
71963;SDS011;59834;52.124;5.422;2023-07-08T09:36:32;4.57;;;3.30;;
71963;SDS011;59834;52.124;5.422;2023-07-08T09:38:58;3.87;;;2.70;;
71963;SDS011;59834;52.124;5.422;2023-07-08T09:41:30;9.05;;;4.05;;
71963;SDS011;59834;52.124;5.422;2023-07-08T09:44:18;5.32;;;2.95;;
71963;SDS011;59834;52.124;5.422;2023-07-08T09:46:53;6.78;;;3.33;;
71963;SDS011;59834;52.124;5.422;2023-07-08T09:49:27;6.07;;;3.33;;
71963;SDS011;59834;52.124;5.422;2023-07-08T09:52:01;5.10;;;2.90;;
71963;SDS011;59834;52.124;5.422;2023-07-08T09:54:29;6.15;;;3.83;;
71963;SDS011;59834;52.124;5.422;2023-07-08T09:57:04;5.10;;;3.20;;
71963;SDS011;59834;52.124;5.422;2023-07-08T09:59:46;6.80;;;3.80;;
71963;SDS011;59834;52.124;5.422;2023-07-08T10:05:06;5.03;;;3.60;;
71963;SDS011;59834;52.124;5.422;2023-07-08T10:07:43;6.10;;;3.63;;
71963;SDS011;59834;52.124;5.422;2023-07-08T10:10:12;5.45;;;4.05;;
71963;SDS011;59834;52.124;5.422;2023-07-08T10:12:45;4.65;;;3.83;;
71963;SDS011;59834;52.124;5.422;2023-07-08T10:15:21;6.22;;;3.78;;
71963;SDS011;59834;52.124;5.422;2023-07-08T10:17:53;5.77;;;4.10;;
71963;SDS011;59834;52.124;5.422;2023-07-08T10:20:21;11.13;;;4.25;;
71963;SDS011;59834;52.124;5.422;2023-07-08T10:30:47;7.43;;;4.30;;
71963;SDS011;59834;52.124;5.422;2023-07-08T10:36:30;5.70;;;4.18;;
71963;SDS011;59834;52.124;5.422;2023-07-08T10:42:04;6.32;;;4.68;;
71963;SDS011;59834;52.124;5.422;2023-07-08T10:45:08;5.80;;;4.27;;
71963;SDS011;59834;52.124;5.422;2023-07-08T10:47:42;6.40;;;4.40;;
71963;SDS011;59834;52.124;5.422;2023-07-08T10:55:50;5.93;;;4.55;;
71963;SDS011;59834;52.124;5.422;2023-07-08T11:06:57;8.07;;;4.57;;
71963;SDS011;59834;52.124;5.422;2023-07-08T11:09:35;5.25;;;4.20;;
71963;SDS011;59834;52.124;5.422;2023-07-08T11:17:39;4.97;;;4.20;;
71963;SDS011;59834;52.124;5.422;2023-07-08T11:20:14;9.68;;;4.90;;
71963;SDS011;59834;52.124;5.422;2023-07-08T11:22:49;7.72;;;4.60;;
71963;SDS011;59834;52.124;5.422;2023-07-08T11:25:29;7.80;;;4.50;;
71963;SDS011;59834;52.124;5.422;2023-07-08T11:27:57;5.22;;;4.30;;
71963;SDS011;59834;52.124;5.422;2023-07-08T11:30:28;7.85;;;3.97;;
71963;SDS011;59834;52.124;5.422;2023-07-08T11:33:06;6.00;;;4.63;;
71963;SDS011;59834;52.124;5.422;2023-07-08T11:38:13;7.30;;;4.53;;
71963;SDS011;59834;52.124;5.422;2023-07-08T11:41:03;5.93;;;4.15;;
71963;SDS011;59834;52.124;5.422;2023-07-08T11:43:44;5.50;;;4.28;;
71963;SDS011;59834;52.124;5.422;2023-07-08T11:46:15;9.23;;;4.20;;
71963;SDS011;59834;52.124;5.422;2023-07-08T11:48:48;8.07;;;4.55;;
71963;SDS011;59834;52.124;5.422;2023-07-08T11:51:18;13.37;;;4.47;;
71963;SDS011;59834;52.124;5.422;2023-07-08T11:53:50;5.25;;;3.72;;
71963;SDS011;59834;52.124;5.422;2023-07-08T11:56:26;6.65;;;4.82;;
71963;SDS011;59834;52.124;5.422;2023-07-08T11:58:57;4.22;;;3.80;;
71963;SDS011;59834;52.124;5.422;2023-07-08T12:01:37;4.90;;;4.22;;
71963;SDS011;59834;52.124;5.422;2023-07-08T12:10:04;7.75;;;4.38;;
71963;SDS011;59834;52.124;5.422;2023-07-08T12:12:05;5.68;;;4.00;;
71963;SDS011;59834;52.124;5.422;2023-07-08T12:14:43;5.47;;;4.80;;
71963;SDS011;59834;52.124;5.422;2023-07-08T12:17:11;9.87;;;5.13;;
71963;SDS011;59834;52.124;5.422;2023-07-08T12:19:39;5.15;;;3.95;;
71963;SDS011;59834;52.124;5.422;2023-07-08T12:22:08;6.93;;;4.90;;
71963;SDS011;59834;52.124;5.422;2023-07-08T12:24:38;7.25;;;4.63;;
71963;SDS011;59834;52.124;5.422;2023-07-08T12:27:08;7.93;;;4.20;;
71963;SDS011;59834;52.124;5.422;2023-07-08T12:29:36;5.27;;;4.50;;
71963;SDS011;59834;52.124;5.422;2023-07-08T12:32:02;9.57;;;5.22;;
71963;SDS011;59834;52.124;5.422;2023-07-08T12:34:30;4.70;;;4.20;;
71963;SDS011;59834;52.124;5.422;2023-07-08T12:36:58;7.10;;;4.40;;
71963;SDS011;59834;52.124;5.422;2023-07-08T12:39:24;8.18;;;4.93;;
71963;SDS011;59834;52.124;5.422;2023-07-08T12:41:51;5.17;;;4.33;;
71963;SDS011;59834;52.124;5.422;2023-07-08T12:44:22;8.55;;;4.80;;
71963;SDS011;59834;52.124;5.422;2023-07-08T12:46:52;6.10;;;4.30;;
71963;SDS011;59834;52.124;5.422;2023-07-08T12:49:20;5.20;;;4.70;;
71963;SDS011;59834;52.124;5.422;2023-07-08T12:51:48;7.68;;;4.30;;
71963;SDS011;59834;52.124;5.422;2023-07-08T12:54:14;5.60;;;5.10;;
71963;SDS011;59834;52.124;5.422;2023-07-08T12:56:42;6.45;;;4.40;;
71963;SDS011;59834;52.124;5.422;2023-07-08T12:59:17;9.65;;;5.22;;
71963;SDS011;59834;52.124;5.422;2023-07-08T13:01:47;8.20;;;4.60;;
71963;SDS011;59834;52.124;5.422;2023-07-08T13:04:15;6.55;;;4.18;;
71963;SDS011;59834;52.124;5.422;2023-07-08T13:06:44;12.63;;;5.00;;
71963;SDS011;59834;52.124;5.422;2023-07-08T13:12:03;12.15;;;4.90;;
71963;SDS011;59834;52.124;5.422;2023-07-08T13:14:38;7.13;;;4.40;;
71963;SDS011;59834;52.124;5.422;2023-07-08T13:17:13;6.90;;;4.18;;
71963;SDS011;59834;52.124;5.422;2023-07-08T13:19:41;7.07;;;4.73;;
71963;SDS011;59834;52.124;5.422;2023-07-08T13:22:13;4.35;;;3.90;;
71963;SDS011;59834;52.124;5.422;2023-07-08T13:24:42;7.70;;;4.50;;
71963;SDS011;59834;52.124;5.422;2023-07-08T13:27:13;9.63;;;4.13;;
71963;SDS011;59834;52.124;5.422;2023-07-08T13:29:51;4.85;;;4.30;;
71963;SDS011;59834;52.124;5.422;2023-07-08T13:32:29;7.67;;;4.17;;
71963;SDS011;59834;52.124;5.422;2023-07-08T13:34:57;4.05;;;3.55;;
71963;SDS011;59834;52.124;5.422;2023-07-08T13:37:24;7.10;;;5.00;;
71963;SDS011;59834;52.124;5.422;2023-07-08T13:39:52;6.18;;;4.55;;
71963;SDS011;59834;52.124;5.422;2023-07-08T13:42:20;6.78;;;4.65;;
71963;SDS011;59834;52.124;5.422;2023-07-08T13:44:47;11.70;;;4.17;;
71963;SDS011;59834;52.124;5.422;2023-07-08T13:47:19;7.10;;;4.32;;
71963;SDS011;59834;52.124;5.422;2023-07-08T13:49:49;7.60;;;3.90;;
71963;SDS011;59834;52.124;5.422;2023-07-08T13:52:22;6.32;;;4.20;;
71963;SDS011;59834;52.124;5.422;2023-07-08T13:54:53;4.28;;;3.83;;
71963;SDS011;59834;52.124;5.422;2023-07-08T13:57:37;9.33;;;4.40;;
71963;SDS011;59834;52.124;5.422;2023-07-08T14:00:06;6.35;;;3.60;;
71963;SDS011;59834;52.124;5.422;2023-07-08T14:02:34;8.40;;;4.50;;
71963;SDS011;59834;52.124;5.422;2023-07-08T14:05:01;6.85;;;3.92;;
71963;SDS011;59834;52.124;5.422;2023-07-08T14:07:32;6.18;;;3.92;;
71963;SDS011;59834;52.124;5.422;2023-07-08T14:09:59;7.47;;;4.07;;
71963;SDS011;59834;52.124;5.422;2023-07-08T14:12:26;7.68;;;3.83;;
71963;SDS011;59834;52.124;5.422;2023-07-08T14:14:52;5.30;;;3.85;;
71963;SDS011;59834;52.124;5.422;2023-07-08T14:17:20;4.22;;;3.67;;
71963;SDS011;59834;52.124;5.422;2023-07-08T14:19:48;7.63;;;5.43;;
71963;SDS011;59834;52.124;5.422;2023-07-08T14:24:48;5.60;;;4.30;;
71963;SDS011;59834;52.124;5.422;2023-07-08T14:27:14;8.05;;;4.72;;
71963;SDS011;59834;52.124;5.422;2023-07-08T14:29:46;9.57;;;4.85;;
71963;SDS011;59834;52.124;5.422;2023-07-08T14:32:15;8.90;;;4.88;;
71963;SDS011;59834;52.124;5.422;2023-07-08T14:34:48;8.03;;;4.30;;
71963;SDS011;59834;52.124;5.422;2023-07-08T14:37:17;5.28;;;4.40;;
71963;SDS011;59834;52.124;5.422;2023-07-08T14:39:44;9.13;;;5.22;;
71963;SDS011;59834;52.124;5.422;2023-07-08T14:42:12;9.57;;;4.47;;
71963;SDS011;59834;52.124;5.422;2023-07-08T14:44:41;6.35;;;4.50;;
71963;SDS011;59834;52.124;5.422;2023-07-08T14:47:12;4.70;;;4.20;;
71963;SDS011;59834;52.124;5.422;2023-07-08T14:49:40;5.40;;;4.10;;
71963;SDS011;59834;52.124;5.422;2023-07-08T14:52:07;5.97;;;4.05;;
71963;SDS011;59834;52.124;5.422;2023-07-08T14:54:34;7.25;;;4.03;;
71963;SDS011;59834;52.124;5.422;2023-07-08T14:57:01;8.15;;;4.32;;
71963;SDS011;59834;52.124;5.422;2023-07-08T14:59:31;5.67;;;4.40;;
71963;SDS011;59834;52.124;5.422;2023-07-08T15:02:01;7.50;;;4.63;;
71963;SDS011;59834;52.124;5.422;2023-07-08T15:04:29;9.90;;;4.82;;
71963;SDS011;59834;52.124;5.422;2023-07-08T15:06:57;8.82;;;4.47;;
71963;SDS011;59834;52.124;5.422;2023-07-08T15:09:25;7.53;;;5.60;;
71963;SDS011;59834;52.124;5.422;2023-07-08T15:11:52;10.30;;;4.83;;
71963;SDS011;59834;52.124;5.422;2023-07-08T15:14:19;8.52;;;4.25;;
71963;SDS011;59834;52.124;5.422;2023-07-08T15:16:50;5.00;;;4.32;;
71963;SDS011;59834;52.124;5.422;2023-07-08T15:19:18;4.68;;;4.25;;
71963;SDS011;59834;52.124;5.422;2023-07-08T15:21:47;8.25;;;4.50;;
71963;SDS011;59834;52.124;5.422;2023-07-08T15:24:14;7.80;;;4.40;;
71963;SDS011;59834;52.124;5.422;2023-07-08T15:26:41;6.93;;;4.90;;
71963;SDS011;59834;52.124;5.422;2023-07-08T15:29:21;7.82;;;4.25;;
71963;SDS011;59834;52.124;5.422;2023-07-08T15:31:49;5.50;;;3.85;;
71963;SDS011;59834;52.124;5.422;2023-07-08T15:34:20;7.70;;;5.45;;
71963;SDS011;59834;52.124;5.422;2023-07-08T15:36:48;6.37;;;4.07;;
71963;SDS011;59834;52.124;5.422;2023-07-08T15:39:16;5.22;;;4.35;;
71963;SDS011;59834;52.124;5.422;2023-07-08T15:41:42;9.55;;;4.70;;
71963;SDS011;59834;52.124;5.422;2023-07-08T15:44:10;6.47;;;4.38;;
71963;SDS011;59834;52.124;5.422;2023-07-08T15:46:42;7.63;;;4.13;;
71963;SDS011;59834;52.124;5.422;2023-07-08T15:49:31;7.33;;;4.43;;
71963;SDS011;59834;52.124;5.422;2023-07-08T15:51:57;7.47;;;4.85;;
71963;SDS011;59834;52.124;5.422;2023-07-08T15:54:23;6.22;;;4.63;;
71963;SDS011;59834;52.124;5.422;2023-07-08T15:56:50;10.18;;;4.57;;
71963;SDS011;59834;52.124;5.422;2023-07-08T15:59:20;6.85;;;4.47;;
71963;SDS011;59834;52.124;5.422;2023-07-08T16:01:52;6.47;;;4.63;;
71963;SDS011;59834;52.124;5.422;2023-07-08T16:04:25;7.03;;;4.45;;
71963;SDS011;59834;52.124;5.422;2023-07-08T16:06:57;4.72;;;4.30;;
71963;SDS011;59834;52.124;5.422;2023-07-08T16:09:24;7.18;;;4.22;;